createdAt,value
2022-11-21T00:00:38.000Z,1.8
2022-11-21T00:01:54.000Z,1.8
2022-11-21T00:03:11.000Z,1.8
2022-11-21T00:04:27.000Z,1.8
2022-11-21T00:05:42.000Z,1.9
2022-11-21T00:06:58.000Z,1.9
2022-11-21T00:09:30.000Z,2
2022-11-21T00:10:46.000Z,2
2022-11-21T00:12:03.000Z,2
2022-11-21T00:13:19.000Z,2.1
2022-11-21T00:14:35.000Z,2.1
2022-11-21T00:15:52.000Z,2.1
2022-11-21T00:17:08.000Z,2.1
2022-11-21T00:18:24.000Z,2.1
2022-11-21T00:19:40.000Z,2
2022-11-21T00:22:13.000Z,2
2022-11-21T00:23:28.000Z,2
2022-11-21T00:24:44.000Z,1.9
2022-11-21T00:26:00.000Z,1.9
2022-11-21T00:27:16.000Z,1.9
2022-11-21T00:28:33.000Z,1.9
2022-11-21T00:29:49.000Z,1.8
2022-11-21T00:31:05.000Z,1.8
2022-11-21T00:32:21.000Z,1.9
2022-11-21T00:33:38.000Z,1.9
2022-11-21T00:34:54.000Z,2
2022-11-21T00:36:10.000Z,2
2022-11-21T00:37:26.000Z,2
2022-11-21T00:38:41.000Z,2
2022-11-21T00:39:57.000Z,2
2022-11-21T00:41:13.000Z,1.9
2022-11-21T00:42:30.000Z,1.9
2022-11-21T00:45:02.000Z,1.9
2022-11-21T00:47:35.000Z,1.9
2022-11-21T00:48:51.000Z,2
2022-11-21T00:50:07.000Z,2
2022-11-21T00:51:24.000Z,2
2022-11-21T00:52:40.000Z,1.9
2022-11-21T00:53:55.000Z,1.9
2022-11-21T00:55:11.000Z,2
2022-11-21T00:56:27.000Z,2
2022-11-21T00:57:42.000Z,2
2022-11-21T01:00:15.000Z,1.9
2022-11-21T01:01:31.000Z,2
2022-11-21T01:02:47.000Z,2
2022-11-21T01:04:04.000Z,2
2022-11-21T01:05:20.000Z,2
2022-11-21T01:06:36.000Z,1.9
2022-11-21T01:07:53.000Z,2
2022-11-21T01:09:09.000Z,2.1
2022-11-21T01:11:41.000Z,2.1
2022-11-21T01:12:58.000Z,2
2022-11-21T01:14:13.000Z,1.9
2022-11-21T01:15:29.000Z,1.9
2022-11-21T01:16:46.000Z,1.8
2022-11-21T01:18:02.000Z,1.8
2022-11-21T01:19:18.000Z,1.9
2022-11-21T01:20:34.000Z,1.9
2022-11-21T01:21:51.000Z,2
2022-11-21T01:23:07.000Z,2
2022-11-21T01:25:40.000Z,2
2022-11-21T01:26:56.000Z,2
2022-11-21T01:28:12.000Z,2
2022-11-21T01:29:28.000Z,2
2022-11-21T01:30:44.000Z,2
2022-11-21T01:32:00.000Z,2
2022-11-21T01:34:33.000Z,2
2022-11-21T01:35:49.000Z,2
2022-11-21T01:37:05.000Z,2
2022-11-21T01:38:21.000Z,2
2022-11-21T01:39:38.000Z,1.9
2022-11-21T01:40:54.000Z,2
2022-11-21T01:42:10.000Z,2
2022-11-21T01:44:43.000Z,2.1
2022-11-21T01:45:59.000Z,2.1
2022-11-21T01:47:15.000Z,2
2022-11-21T01:48:31.000Z,1.9
2022-11-21T01:51:03.000Z,1.9
2022-11-21T01:52:20.000Z,1.9
2022-11-21T01:53:36.000Z,1.9
2022-11-21T01:54:52.000Z,1.9
2022-11-21T01:57:25.000Z,1.9
2022-11-21T01:59:57.000Z,1.8
2022-11-21T02:01:14.000Z,1.7
2022-11-21T02:03:46.000Z,1.7
2022-11-21T02:05:02.000Z,1.7
2022-11-21T02:06:18.000Z,1.7
2022-11-21T02:07:34.000Z,1.8
2022-11-21T02:08:50.000Z,1.9
2022-11-21T02:10:07.000Z,1.9
2022-11-21T02:11:23.000Z,2
2022-11-21T02:12:39.000Z,2
2022-11-21T02:13:56.000Z,2
2022-11-21T02:16:28.000Z,1.9
2022-11-21T02:19:01.000Z,1.9
2022-11-21T02:20:17.000Z,1.9
2022-11-21T02:21:32.000Z,1.9
2022-11-21T02:22:49.000Z,2
2022-11-21T02:24:05.000Z,2
2022-11-21T02:25:21.000Z,2
2022-11-21T02:26:37.000Z,2.1
2022-11-21T02:27:54.000Z,2.1
2022-11-21T02:29:10.000Z,2.1
2022-11-21T02:30:26.000Z,2.1
2022-11-21T02:31:43.000Z,2.1
2022-11-21T02:32:59.000Z,2.1
2022-11-21T02:34:15.000Z,2.1
2022-11-21T02:35:31.000Z,2.1
2022-11-21T02:36:48.000Z,2.1
2022-11-21T02:38:03.000Z,2.1
2022-11-21T02:41:52.000Z,2
2022-11-21T02:43:08.000Z,2
2022-11-21T02:44:25.000Z,2
2022-11-21T02:45:41.000Z,2
2022-11-21T02:46:57.000Z,2
2022-11-21T02:48:13.000Z,2
2022-11-21T02:49:30.000Z,2
2022-11-21T02:50:46.000Z,1.9
2022-11-21T02:52:02.000Z,1.8
2022-11-21T02:54:35.000Z,1.9
2022-11-21T02:55:50.000Z,1.9
2022-11-21T02:57:06.000Z,1.9
2022-11-21T02:58:23.000Z,2
2022-11-21T02:59:39.000Z,1.8
2022-11-21T03:00:55.000Z,1.8
2022-11-21T03:02:12.000Z,1.9
2022-11-21T03:03:28.000Z,1.9
2022-11-21T03:04:44.000Z,1.9
2022-11-21T03:07:17.000Z,2
2022-11-21T03:08:33.000Z,2
2022-11-21T03:09:49.000Z,2
2022-11-21T03:11:06.000Z,2
2022-11-21T03:12:21.000Z,1.9
2022-11-21T03:13:37.000Z,1.9
2022-11-21T03:14:53.000Z,1.9
2022-11-21T03:16:10.000Z,1.9
2022-11-21T03:17:26.000Z,1.9
2022-11-21T03:21:15.000Z,1.7
2022-11-21T03:22:31.000Z,1.8
2022-11-21T03:23:47.000Z,1.8
2022-11-21T03:25:04.000Z,1.8
2022-11-21T03:26:20.000Z,1.7
2022-11-21T03:27:36.000Z,1.7
2022-11-21T03:28:52.000Z,1.7
2022-11-21T03:30:08.000Z,1.8
2022-11-21T03:32:41.000Z,1.8
2022-11-21T03:33:57.000Z,1.9
2022-11-21T03:35:13.000Z,1.9
2022-11-21T03:36:29.000Z,1.9
2022-11-21T03:37:46.000Z,1.9
2022-11-21T03:39:02.000Z,1.9
2022-11-21T03:40:18.000Z,2
2022-11-21T03:41:35.000Z,2
2022-11-21T03:42:51.000Z,2
2022-11-21T03:45:23.000Z,1.9
2022-11-21T03:46:39.000Z,1.9
2022-11-21T03:47:55.000Z,1.9
2022-11-21T03:49:11.000Z,1.9
2022-11-21T03:50:28.000Z,1.9
2022-11-21T03:51:44.000Z,1.9
2022-11-21T03:53:00.000Z,1.9
2022-11-21T03:54:16.000Z,1.9
2022-11-21T03:55:33.000Z,1.9
2022-11-21T03:56:49.000Z,1.9
2022-11-21T03:58:05.000Z,2
2022-11-21T03:59:22.000Z,2
2022-11-21T04:00:37.000Z,1.9
2022-11-21T04:01:52.000Z,1.9
2022-11-21T04:03:08.000Z,1.9
2022-11-21T04:04:25.000Z,1.9
2022-11-21T04:05:41.000Z,1.9
2022-11-21T04:06:57.000Z,1.9
2022-11-21T04:08:14.000Z,1.9
2022-11-21T04:10:46.000Z,2
2022-11-21T04:12:02.000Z,2
2022-11-21T04:13:19.000Z,2
2022-11-21T04:15:51.000Z,2
2022-11-21T04:17:07.000Z,2
2022-11-21T04:18:22.000Z,2
2022-11-21T04:19:38.000Z,2
2022-11-21T04:23:27.000Z,2
2022-11-21T04:24:43.000Z,2
2022-11-21T04:26:00.000Z,2
2022-11-21T04:27:16.000Z,2
2022-11-21T04:28:32.000Z,2.1
2022-11-21T04:29:49.000Z,2
2022-11-21T04:31:05.000Z,2
2022-11-21T04:32:21.000Z,2
2022-11-21T04:33:37.000Z,2
2022-11-21T04:34:53.000Z,2.1
2022-11-21T04:36:09.000Z,2.1
2022-11-21T04:37:25.000Z,2.1
2022-11-21T04:38:42.000Z,2.2
2022-11-21T04:39:58.000Z,2.2
2022-11-21T04:41:14.000Z,2.1
2022-11-21T04:42:30.000Z,2
2022-11-21T04:43:47.000Z,1.9
2022-11-21T04:45:03.000Z,1.9
2022-11-21T04:46:19.000Z,1.9
2022-11-21T04:47:36.000Z,1.9
2022-11-21T04:48:52.000Z,1.9
2022-11-21T04:50:07.000Z,1.9
2022-11-21T04:51:23.000Z,1.9
2022-11-21T04:52:39.000Z,1.9
2022-11-21T04:53:55.000Z,1.9
2022-11-21T04:55:11.000Z,1.9
2022-11-21T04:56:28.000Z,1.9
2022-11-21T04:57:44.000Z,1.9
2022-11-21T04:59:00.000Z,2
2022-11-21T05:01:33.000Z,2.1
2022-11-21T05:02:49.000Z,2.1
2022-11-21T05:04:05.000Z,2.1
2022-11-21T05:05:22.000Z,2.1
2022-11-21T05:06:38.000Z,2.1
2022-11-21T05:07:53.000Z,2.1
2022-11-21T05:09:10.000Z,2
2022-11-21T05:10:26.000Z,2.1
2022-11-21T05:11:42.000Z,2
2022-11-21T05:14:14.000Z,2
2022-11-21T05:15:29.000Z,1.9
2022-11-21T05:16:45.000Z,1.9
2022-11-21T05:18:01.000Z,1.9
2022-11-21T05:19:17.000Z,1.9
2022-11-21T05:20:33.000Z,2
2022-11-21T05:23:06.000Z,2
2022-11-21T05:24:22.000Z,1.9
2022-11-21T05:25:38.000Z,1.9
2022-11-21T05:26:55.000Z,1.9
2022-11-21T05:28:11.000Z,1.9
2022-11-21T05:29:27.000Z,1.9
2022-11-21T05:30:44.000Z,1.9
2022-11-21T05:32:00.000Z,1.9
2022-11-21T05:33:16.000Z,1.9
2022-11-21T05:34:31.000Z,1.9
2022-11-21T05:35:48.000Z,1.9
2022-11-21T05:37:04.000Z,1.9
2022-11-21T05:39:37.000Z,1.9
2022-11-21T05:40:53.000Z,1.8
2022-11-21T05:42:09.000Z,1.8
2022-11-21T05:43:25.000Z,1.9
2022-11-21T05:47:14.000Z,2
2022-11-21T05:48:31.000Z,2
2022-11-21T05:49:47.000Z,2
2022-11-21T05:54:51.000Z,2
2022-11-21T05:56:07.000Z,2
2022-11-21T05:57:24.000Z,2
2022-11-21T05:58:40.000Z,2.1
2022-11-21T05:59:56.000Z,2.1
2022-11-21T06:01:12.000Z,2.1
2022-11-21T06:02:29.000Z,2.2
2022-11-21T06:05:01.000Z,2.2
2022-11-21T06:06:18.000Z,2.2
2022-11-21T06:07:33.000Z,2.2
2022-11-21T06:08:49.000Z,2.2
2022-11-21T06:10:06.000Z,2
2022-11-21T06:11:22.000Z,2
2022-11-21T06:12:38.000Z,2
2022-11-21T06:13:54.000Z,2
2022-11-21T06:15:11.000Z,2
2022-11-21T06:16:27.000Z,2
2022-11-21T06:17:43.000Z,1.9
2022-11-21T06:19:00.000Z,1.9
2022-11-21T06:20:16.000Z,1.9
2022-11-21T06:21:31.000Z,1.9
2022-11-21T06:22:46.000Z,1.9
2022-11-21T06:24:03.000Z,1.9
2022-11-21T06:25:19.000Z,2
2022-11-21T06:26:35.000Z,2
2022-11-21T06:27:51.000Z,2
2022-11-21T06:29:08.000Z,1.9
2022-11-21T06:30:24.000Z,1.9
2022-11-21T06:31:40.000Z,1.9
2022-11-21T06:32:56.000Z,1.9
2022-11-21T06:34:13.000Z,1.9
2022-11-21T06:36:44.000Z,2
2022-11-21T06:38:00.000Z,1.9
2022-11-21T06:39:16.000Z,1.8
2022-11-21T06:40:32.000Z,1.8
2022-11-21T06:43:04.000Z,1.9
2022-11-21T06:45:36.000Z,2
2022-11-21T06:46:51.000Z,1.9
2022-11-21T06:49:23.000Z,1.9
2022-11-21T06:50:39.000Z,1.9
2022-11-21T06:51:55.000Z,1.9
2022-11-21T06:53:11.000Z,1.9
2022-11-21T06:55:44.000Z,1.7
2022-11-21T06:57:00.000Z,1.8
2022-11-21T06:58:16.000Z,1.8
2022-11-21T06:59:33.000Z,1.7
2022-11-21T07:00:49.000Z,1.7
2022-11-21T07:02:05.000Z,1.8
2022-11-21T07:04:38.000Z,1.8
2022-11-21T07:05:54.000Z,1.8
2022-11-21T07:07:09.000Z,1.8
2022-11-21T07:08:25.000Z,1.8
2022-11-21T07:09:41.000Z,1.7
2022-11-21T07:10:58.000Z,1.7
2022-11-21T07:12:14.000Z,1.8
2022-11-21T07:13:30.000Z,1.8
2022-11-21T07:14:46.000Z,1.9
2022-11-21T07:17:19.000Z,2
2022-11-21T07:18:35.000Z,1.9
2022-11-21T07:21:08.000Z,1.7
2022-11-21T07:22:24.000Z,1.7
2022-11-21T07:23:39.000Z,1.7
2022-11-21T07:24:55.000Z,1.8
2022-11-21T07:26:12.000Z,1.8
2022-11-21T07:27:28.000Z,1.7
2022-11-21T07:28:44.000Z,1.7
2022-11-21T07:30:00.000Z,1.7
2022-11-21T07:31:16.000Z,1.8
2022-11-21T07:32:33.000Z,1.8
2022-11-21T07:33:49.000Z,1.8
2022-11-21T07:36:21.000Z,1.9
2022-11-21T07:37:38.000Z,1.9
2022-11-21T07:38:54.000Z,1.9
2022-11-21T07:40:09.000Z,2
2022-11-21T07:41:25.000Z,2
2022-11-21T07:42:42.000Z,1.9
2022-11-21T07:43:58.000Z,1.9
2022-11-21T07:46:30.000Z,1.9
2022-11-21T07:47:47.000Z,1.9
2022-11-21T07:49:03.000Z,1.9
2022-11-21T07:50:19.000Z,1.9
2022-11-21T07:51:35.000Z,1.9
2022-11-21T07:52:51.000Z,1.9
2022-11-21T07:54:08.000Z,2
2022-11-21T07:55:24.000Z,2.1
2022-11-21T07:56:39.000Z,2.1
2022-11-21T07:57:55.000Z,2.1
2022-11-21T08:00:28.000Z,2.1
2022-11-21T08:01:44.000Z,2.1
2022-11-21T08:03:00.000Z,2.1
2022-11-21T08:04:17.000Z,2.1
2022-11-21T08:05:33.000Z,2.1
2022-11-21T08:06:49.000Z,2
2022-11-21T08:08:05.000Z,2
2022-11-21T08:09:22.000Z,2.1
2022-11-21T08:11:54.000Z,1.9
2022-11-21T08:13:09.000Z,1.8
2022-11-21T08:14:25.000Z,1.8
2022-11-21T08:15:42.000Z,1.9
2022-11-21T08:16:58.000Z,2
2022-11-21T08:18:14.000Z,2
2022-11-21T08:19:30.000Z,1.8
2022-11-21T08:20:47.000Z,1.8
2022-11-21T08:22:03.000Z,1.7
2022-11-21T08:24:35.000Z,1.7
2022-11-21T08:25:52.000Z,1.9
2022-11-21T08:27:08.000Z,1.9
2022-11-21T08:28:24.000Z,1.9
2022-11-21T08:29:39.000Z,1.9
2022-11-21T08:30:56.000Z,1.8
2022-11-21T08:32:12.000Z,1.8
2022-11-21T08:33:28.000Z,1.8
2022-11-21T08:34:44.000Z,1.9
2022-11-21T08:36:00.000Z,2
2022-11-21T08:37:17.000Z,1.9
2022-11-21T08:38:32.000Z,1.9
2022-11-21T08:41:03.000Z,2
2022-11-21T08:42:20.000Z,2.1
2022-11-21T08:43:36.000Z,2.1
2022-11-21T08:44:52.000Z,2.1
2022-11-21T08:46:08.000Z,2.1
2022-11-21T08:47:25.000Z,2
2022-11-21T08:48:41.000Z,1.9
2022-11-21T08:49:57.000Z,1.9
2022-11-21T08:51:13.000Z,1.9
2022-11-21T08:52:30.000Z,1.9
2022-11-21T08:53:45.000Z,1.8
2022-11-21T08:55:00.000Z,1.9
2022-11-21T08:56:16.000Z,1.9
2022-11-21T08:57:33.000Z,1.9
2022-11-21T08:58:49.000Z,1.8
2022-11-21T09:00:05.000Z,1.9
2022-11-21T09:02:37.000Z,2
2022-11-21T09:03:54.000Z,2
2022-11-21T09:05:10.000Z,2
2022-11-21T09:06:26.000Z,2.1
2022-11-21T09:07:42.000Z,2.1
2022-11-21T09:08:59.000Z,2.2
2022-11-21T09:10:15.000Z,2.3
2022-11-21T09:11:30.000Z,2.4
2022-11-21T09:12:46.000Z,2.4
2022-11-21T09:14:03.000Z,2.3
2022-11-21T09:15:19.000Z,2.3
2022-11-21T09:16:35.000Z,2.2
2022-11-21T09:19:08.000Z,2.4
2022-11-21T09:20:23.000Z,2.4
2022-11-21T09:21:38.000Z,2.5
2022-11-21T09:22:54.000Z,2.5
2022-11-21T09:24:10.000Z,2.6
2022-11-21T09:26:43.000Z,2.5
2022-11-21T09:27:59.000Z,2.4
2022-11-21T09:29:15.000Z,2.5
2022-11-21T09:30:31.000Z,2.4
2022-11-21T09:31:47.000Z,2.5
2022-11-21T09:33:03.000Z,2.6
2022-11-21T09:34:19.000Z,2.6
2022-11-21T09:35:36.000Z,2.6
2022-11-21T09:36:52.000Z,2.7
2022-11-21T09:38:08.000Z,2.7
2022-11-21T09:40:41.000Z,2.8
2022-11-21T09:41:56.000Z,2.8
2022-11-21T09:43:11.000Z,2.6
2022-11-21T09:44:27.000Z,2.4
2022-11-21T09:45:44.000Z,2.5
2022-11-21T09:47:00.000Z,2.7
2022-11-21T09:48:16.000Z,2.8
2022-11-21T09:50:48.000Z,3
2022-11-21T09:52:05.000Z,3
2022-11-21T09:53:21.000Z,2.8
2022-11-21T09:54:37.000Z,2.6
2022-11-21T09:55:53.000Z,2.6
2022-11-21T09:57:10.000Z,2.7
2022-11-21T09:58:26.000Z,2.6
2022-11-21T09:59:42.000Z,2.6
2022-11-21T10:00:57.000Z,2.5
2022-11-21T10:02:14.000Z,2.5
2022-11-21T10:03:30.000Z,2.6
2022-11-21T10:04:46.000Z,2.7
2022-11-21T10:06:02.000Z,2.8
2022-11-21T10:07:19.000Z,2.9
2022-11-21T10:08:35.000Z,2.8
2022-11-21T10:09:50.000Z,2.6
2022-11-21T10:11:05.000Z,2.6
2022-11-21T10:12:22.000Z,2.8
2022-11-21T10:13:38.000Z,2.8
2022-11-21T10:14:54.000Z,2.9
2022-11-21T10:16:10.000Z,2.8
2022-11-21T10:18:43.000Z,2.9
2022-11-21T10:19:59.000Z,2.8
2022-11-21T10:21:15.000Z,2.7
2022-11-21T10:22:31.000Z,2.7
2022-11-21T10:23:48.000Z,2.9
2022-11-21T10:25:04.000Z,2.7
2022-11-21T10:26:20.000Z,2.6
2022-11-21T10:27:35.000Z,2.6
2022-11-21T10:28:52.000Z,2.6
2022-11-21T10:30:08.000Z,2.6
2022-11-21T10:31:24.000Z,2.6
2022-11-21T10:32:40.000Z,2.6
2022-11-21T10:33:56.000Z,2.6
2022-11-21T10:35:13.000Z,2.6
2022-11-21T10:36:29.000Z,2.8
2022-11-21T10:39:00.000Z,3
2022-11-21T10:40:16.000Z,3
2022-11-21T10:41:32.000Z,3.1
2022-11-21T10:44:04.000Z,3.1
2022-11-21T10:45:20.000Z,3
2022-11-21T10:46:35.000Z,3
2022-11-21T10:47:51.000Z,3
2022-11-21T10:49:07.000Z,3
2022-11-21T10:50:24.000Z,3
2022-11-21T10:51:40.000Z,3
2022-11-21T10:52:56.000Z,3
2022-11-21T10:56:45.000Z,3
2022-11-21T10:58:01.000Z,3.1
2022-11-21T10:59:17.000Z,3.1
2022-11-21T11:00:33.000Z,3.1
2022-11-21T11:01:50.000Z,3.1
2022-11-21T11:03:05.000Z,3.2
2022-11-21T11:04:21.000Z,3.3
2022-11-21T11:05:37.000Z,3.3
2022-11-21T11:06:54.000Z,3.3
2022-11-21T11:09:26.000Z,3.4
2022-11-21T11:10:42.000Z,3.3
2022-11-21T11:11:59.000Z,3.3
2022-11-21T11:13:15.000Z,3.4
2022-11-21T11:14:31.000Z,3.5
2022-11-21T11:15:47.000Z,3.5
2022-11-21T11:17:04.000Z,3.6
2022-11-21T11:18:20.000Z,3.7
2022-11-21T11:19:35.000Z,3.6
2022-11-21T11:22:07.000Z,3.7
2022-11-21T11:23:24.000Z,3.7
2022-11-21T11:24:40.000Z,3.6
2022-11-21T11:25:56.000Z,3.5
2022-11-21T11:28:29.000Z,3.5
2022-11-21T11:29:45.000Z,3.5
2022-11-21T11:31:01.000Z,3.5
2022-11-21T11:32:17.000Z,3.4
2022-11-21T11:34:50.000Z,3.6
2022-11-21T11:36:05.000Z,3.6
2022-11-21T11:37:21.000Z,3.6
2022-11-21T11:38:38.000Z,3.6
2022-11-21T11:39:54.000Z,3.6
2022-11-21T11:41:10.000Z,3.6
2022-11-21T11:42:26.000Z,3.7
2022-11-21T11:43:42.000Z,3.7
2022-11-21T11:44:59.000Z,3.7
2022-11-21T11:47:31.000Z,3.6
2022-11-21T11:48:47.000Z,3.6
2022-11-21T11:50:04.000Z,3.7
2022-11-21T11:51:20.000Z,3.7
2022-11-21T11:52:35.000Z,3.7
2022-11-21T11:53:51.000Z,3.7
2022-11-21T11:55:08.000Z,3.7
2022-11-21T11:56:24.000Z,3.7
2022-11-21T11:57:40.000Z,3.7
2022-11-21T11:58:56.000Z,3.7
2022-11-21T12:01:29.000Z,3.7
2022-11-21T12:02:45.000Z,3.7
2022-11-21T12:04:01.000Z,3.8
2022-11-21T12:05:17.000Z,3.9
2022-11-21T12:06:34.000Z,3.9
2022-11-21T12:07:50.000Z,3.9
2022-11-21T12:09:05.000Z,3.9
2022-11-21T12:12:54.000Z,3.9
2022-11-21T12:14:10.000Z,4
2022-11-21T12:15:26.000Z,4
2022-11-21T12:16:43.000Z,4
2022-11-21T12:17:59.000Z,4.1
2022-11-21T12:19:15.000Z,4.1
2022-11-21T12:20:31.000Z,4.1
2022-11-21T12:21:48.000Z,4.1
2022-11-21T12:23:04.000Z,4.1
2022-11-21T12:25:36.000Z,4.3
2022-11-21T12:26:52.000Z,4.3
2022-11-21T12:28:08.000Z,4.2
2022-11-21T12:29:24.000Z,4.3
2022-11-21T12:30:40.000Z,4.3
2022-11-21T12:31:56.000Z,4.3
2022-11-21T12:33:13.000Z,4.3
2022-11-21T12:34:29.000Z,4.3
2022-11-21T12:35:45.000Z,4.3
2022-11-21T12:38:18.000Z,4.3
2022-11-21T12:39:34.000Z,4.3
2022-11-21T12:40:50.000Z,4.3
2022-11-21T12:42:06.000Z,4.3
2022-11-21T12:43:23.000Z,4.3
2022-11-21T12:44:38.000Z,4.3
2022-11-21T12:45:54.000Z,4.4
2022-11-21T12:47:10.000Z,4.4
2022-11-21T12:48:26.000Z,4.4
2022-11-21T12:49:43.000Z,4.4
2022-11-21T12:50:59.000Z,4.4
2022-11-21T12:54:47.000Z,4.4
2022-11-21T12:56:02.000Z,4.3
2022-11-21T12:57:18.000Z,4.4
2022-11-21T12:58:34.000Z,4.4
2022-11-21T12:59:51.000Z,4.5
2022-11-21T13:01:07.000Z,4.5
2022-11-21T13:02:23.000Z,4.5
2022-11-21T13:03:39.000Z,4.5
2022-11-21T13:04:56.000Z,4.5
2022-11-21T13:06:12.000Z,4.5
2022-11-21T13:07:28.000Z,4.4
2022-11-21T13:08:44.000Z,4.4
2022-11-21T13:10:00.000Z,4.4
2022-11-21T13:11:17.000Z,4.5
2022-11-21T13:12:32.000Z,4.5
2022-11-21T13:13:48.000Z,4.4
2022-11-21T13:16:21.000Z,4.6
2022-11-21T13:17:37.000Z,4.6
2022-11-21T13:18:53.000Z,4.7
2022-11-21T13:20:09.000Z,4.6
2022-11-21T13:21:25.000Z,4.6
2022-11-21T13:22:40.000Z,4.5
2022-11-21T13:23:56.000Z,4.5
2022-11-21T13:25:12.000Z,4.5
2022-11-21T13:26:29.000Z,4.5
2022-11-21T13:30:17.000Z,4.5
2022-11-21T13:31:34.000Z,4.5
2022-11-21T13:32:50.000Z,4.6
2022-11-21T13:34:06.000Z,4.6
2022-11-21T13:35:22.000Z,4.6
2022-11-21T13:36:38.000Z,4.6
2022-11-21T13:39:10.000Z,4.7
2022-11-21T13:40:25.000Z,4.7
2022-11-21T13:41:40.000Z,4.6
2022-11-21T13:42:57.000Z,4.7
2022-11-21T13:44:13.000Z,4.7
2022-11-21T13:45:28.000Z,4.7
2022-11-21T13:46:44.000Z,4.7
2022-11-21T13:50:33.000Z,4.7
2022-11-21T13:51:49.000Z,4.7
2022-11-21T13:54:22.000Z,4.7
2022-11-21T13:55:38.000Z,4.7
2022-11-21T13:56:54.000Z,4.7
2022-11-21T13:58:11.000Z,4.7
2022-11-21T13:59:27.000Z,4.7
2022-11-21T14:00:43.000Z,4.6
2022-11-21T14:01:58.000Z,4.6
2022-11-21T14:03:14.000Z,4.7
2022-11-21T14:04:31.000Z,4.7
2022-11-21T14:05:47.000Z,4.7
2022-11-21T14:07:03.000Z,4.7
2022-11-21T14:09:36.000Z,4.7
2022-11-21T14:10:52.000Z,4.7
2022-11-21T14:12:08.000Z,4.7
2022-11-21T14:13:24.000Z,4.7
2022-11-21T14:14:41.000Z,4.7
2022-11-21T14:15:57.000Z,4.8
2022-11-21T14:17:13.000Z,4.8
2022-11-21T14:18:28.000Z,4.7
2022-11-21T14:19:45.000Z,4.8
2022-11-21T14:21:00.000Z,4.8
2022-11-21T14:22:15.000Z,4.8
2022-11-21T14:23:31.000Z,4.8
2022-11-21T14:24:48.000Z,4.8
2022-11-21T14:26:04.000Z,4.8
2022-11-21T14:27:20.000Z,4.8
2022-11-21T14:28:36.000Z,4.9
2022-11-21T14:29:52.000Z,4.9
2022-11-21T14:32:25.000Z,4.9
2022-11-21T14:33:41.000Z,4.8
2022-11-21T14:34:57.000Z,4.8
2022-11-21T14:36:14.000Z,4.8
2022-11-21T14:37:30.000Z,4.9
2022-11-21T14:38:45.000Z,4.9
2022-11-21T14:40:01.000Z,4.9
2022-11-21T14:42:34.000Z,4.9
2022-11-21T14:43:49.000Z,4.9
2022-11-21T14:45:04.000Z,4.8
2022-11-21T14:46:21.000Z,4.9
2022-11-21T14:47:37.000Z,4.9
2022-11-21T14:48:53.000Z,4.9
2022-11-21T14:50:09.000Z,4.8
2022-11-21T14:52:42.000Z,4.8
2022-11-21T14:53:58.000Z,4.8
2022-11-21T14:55:14.000Z,4.8
2022-11-21T14:56:30.000Z,4.8
2022-11-21T14:57:47.000Z,4.8
2022-11-21T14:59:03.000Z,4.8
2022-11-21T15:00:19.000Z,4.8
2022-11-21T15:01:34.000Z,4.8
2022-11-21T15:02:51.000Z,4.8
2022-11-21T15:04:07.000Z,4.8
2022-11-21T15:05:23.000Z,4.8
2022-11-21T15:07:56.000Z,4.8
2022-11-21T15:09:12.000Z,4.8
2022-11-21T15:10:28.000Z,4.8
2022-11-21T15:11:44.000Z,4.8
2022-11-21T15:13:00.000Z,4.7
2022-11-21T15:14:17.000Z,4.7
2022-11-21T15:16:49.000Z,4.7
2022-11-21T15:18:04.000Z,4.7
2022-11-21T15:19:21.000Z,4.7
2022-11-21T15:20:37.000Z,4.7
2022-11-21T15:23:09.000Z,4.7
2022-11-21T15:24:26.000Z,4.6
2022-11-21T15:25:42.000Z,4.6
2022-11-21T15:26:58.000Z,4.6
2022-11-21T15:28:14.000Z,4.6
2022-11-21T15:29:31.000Z,4.5
2022-11-21T15:30:47.000Z,4.6
2022-11-21T15:32:03.000Z,4.5
2022-11-21T15:33:19.000Z,4.5
2022-11-21T15:34:34.000Z,4.5
2022-11-21T15:35:51.000Z,4.5
2022-11-21T15:37:07.000Z,4.5
2022-11-21T15:38:23.000Z,4.5
2022-11-21T15:39:39.000Z,4.5
2022-11-21T15:40:56.000Z,4.5
2022-11-21T15:42:12.000Z,4.5
2022-11-21T15:44:43.000Z,4.5
2022-11-21T15:47:15.000Z,4.4
2022-11-21T15:48:31.000Z,4.5
2022-11-21T15:49:47.000Z,4.5
2022-11-21T15:51:04.000Z,4.4
2022-11-21T15:52:20.000Z,4.4
2022-11-21T15:53:36.000Z,4.4
2022-11-21T15:54:52.000Z,4.4
2022-11-21T15:56:08.000Z,4.4
2022-11-21T15:57:25.000Z,4.4
2022-11-21T15:58:41.000Z,4.4
2022-11-21T16:01:13.000Z,4.4
2022-11-21T16:02:29.000Z,4.3
2022-11-21T16:03:45.000Z,4.4
2022-11-21T16:05:01.000Z,4.4
2022-11-21T16:06:18.000Z,4.4
2022-11-21T16:07:34.000Z,4.4
2022-11-21T16:08:50.000Z,4.4
2022-11-21T16:10:06.000Z,4.4
2022-11-21T16:11:23.000Z,4.3
2022-11-21T16:12:39.000Z,4.3
2022-11-21T16:13:54.000Z,4.4
2022-11-21T16:15:10.000Z,4.4
2022-11-21T16:16:26.000Z,4.4
2022-11-21T16:17:42.000Z,4.4
2022-11-21T16:18:59.000Z,4.4
2022-11-21T16:20:15.000Z,4.3
2022-11-21T16:21:31.000Z,4.4
2022-11-21T16:22:47.000Z,4.4
2022-11-21T16:24:04.000Z,4.4
2022-11-21T16:25:20.000Z,4.4
2022-11-21T16:26:36.000Z,4.4
2022-11-21T16:27:52.000Z,4.4
2022-11-21T16:29:07.000Z,4.3
2022-11-21T16:30:23.000Z,4.3
2022-11-21T16:31:39.000Z,4.4
2022-11-21T16:32:56.000Z,4.4
2022-11-21T16:34:12.000Z,4.4
2022-11-21T16:35:28.000Z,4.3
2022-11-21T16:36:45.000Z,4.3
2022-11-21T16:38:01.000Z,4.3
2022-11-21T16:39:17.000Z,4.3
2022-11-21T16:40:33.000Z,4.3
2022-11-21T16:41:50.000Z,4.2
2022-11-21T16:43:06.000Z,4.2
2022-11-21T16:44:22.000Z,4.2
2022-11-21T16:45:38.000Z,4.2
2022-11-21T16:46:54.000Z,4.2
2022-11-21T16:48:10.000Z,4.2
2022-11-21T16:49:26.000Z,4.2
2022-11-21T16:51:59.000Z,4.2
2022-11-21T16:53:15.000Z,4.2
2022-11-21T16:57:04.000Z,4.2
2022-11-21T16:58:20.000Z,4.1
2022-11-21T16:59:35.000Z,4.1
2022-11-21T17:02:07.000Z,4.1
2022-11-21T17:03:24.000Z,4.1
2022-11-21T17:04:40.000Z,4.1
2022-11-21T17:05:56.000Z,4.1
2022-11-21T17:08:29.000Z,4.1
2022-11-21T17:09:45.000Z,4.1
2022-11-21T17:11:01.000Z,4
2022-11-21T17:12:18.000Z,4
2022-11-21T17:13:34.000Z,4
2022-11-21T17:14:49.000Z,4
2022-11-21T17:16:05.000Z,4
2022-11-21T17:17:21.000Z,4
2022-11-21T17:18:37.000Z,4.1
2022-11-21T17:19:53.000Z,4
2022-11-21T17:21:10.000Z,4
2022-11-21T17:22:26.000Z,4
2022-11-21T17:23:42.000Z,4.1
2022-11-21T17:24:59.000Z,4
2022-11-21T17:26:15.000Z,4
2022-11-21T17:28:47.000Z,4
2022-11-21T17:30:04.000Z,4
2022-11-21T17:31:20.000Z,4
2022-11-21T17:32:35.000Z,4
2022-11-21T17:33:52.000Z,3.9
2022-11-21T17:35:08.000Z,3.9
2022-11-21T17:36:24.000Z,3.9
2022-11-21T17:37:41.000Z,3.9
2022-11-21T17:38:57.000Z,3.9
2022-11-21T17:40:13.000Z,3.9
2022-11-21T17:42:46.000Z,3.9
2022-11-21T17:44:02.000Z,3.9
2022-11-21T17:45:18.000Z,3.9
2022-11-21T17:46:35.000Z,3.9
2022-11-21T17:47:51.000Z,3.9
2022-11-21T17:49:06.000Z,3.9
2022-11-21T17:50:22.000Z,3.8
2022-11-21T17:51:39.000Z,3.8
2022-11-21T17:52:55.000Z,3.9
2022-11-21T17:54:11.000Z,3.9
2022-11-21T17:55:27.000Z,3.9
2022-11-21T17:57:58.000Z,3.8
2022-11-21T17:59:14.000Z,3.9
2022-11-21T18:00:30.000Z,3.8
2022-11-21T18:01:46.000Z,3.8
2022-11-21T18:03:02.000Z,3.8
2022-11-21T18:04:19.000Z,3.9
2022-11-21T18:06:51.000Z,3.9
2022-11-21T18:09:24.000Z,3.9
2022-11-21T18:10:40.000Z,3.8
2022-11-21T18:11:56.000Z,3.8
2022-11-21T18:13:12.000Z,3.9
2022-11-21T18:14:27.000Z,3.9
2022-11-21T18:15:43.000Z,3.8
2022-11-21T18:17:00.000Z,3.8
2022-11-21T18:18:16.000Z,3.8
2022-11-21T18:20:48.000Z,3.8
2022-11-21T18:22:05.000Z,3.9
2022-11-21T18:23:21.000Z,3.8
2022-11-21T18:24:37.000Z,3.8
2022-11-21T18:25:54.000Z,3.8
2022-11-21T18:27:10.000Z,3.7
2022-11-21T18:28:26.000Z,3.7
2022-11-21T18:29:42.000Z,3.8
2022-11-21T18:30:58.000Z,3.8
2022-11-21T18:32:14.000Z,3.8
2022-11-21T18:33:30.000Z,3.8
2022-11-21T18:34:47.000Z,3.8
2022-11-21T18:36:03.000Z,3.8
2022-11-21T18:37:19.000Z,3.8
2022-11-21T18:38:35.000Z,3.8
2022-11-21T18:39:52.000Z,3.8
2022-11-21T18:41:07.000Z,3.9
2022-11-21T18:43:39.000Z,3.8
2022-11-21T18:46:11.000Z,3.8
2022-11-21T18:47:28.000Z,3.8
2022-11-21T18:48:44.000Z,3.8
2022-11-21T18:50:00.000Z,3.8
2022-11-21T18:51:16.000Z,3.8
2022-11-21T18:52:33.000Z,3.8
2022-11-21T18:53:49.000Z,3.8
2022-11-21T18:55:05.000Z,3.8
2022-11-21T18:56:22.000Z,3.8
2022-11-21T18:57:38.000Z,3.8
2022-11-21T18:58:53.000Z,3.8
2022-11-21T19:00:09.000Z,3.8
2022-11-21T19:01:26.000Z,3.8
2022-11-21T19:02:42.000Z,3.8
2022-11-21T19:05:15.000Z,3.8
2022-11-21T19:06:30.000Z,3.8
2022-11-21T19:07:45.000Z,3.8
2022-11-21T19:09:01.000Z,3.8
2022-11-21T19:11:34.000Z,3.8
2022-11-21T19:12:50.000Z,3.8
2022-11-21T19:14:07.000Z,3.8
2022-11-21T19:15:23.000Z,3.8
2022-11-21T19:16:39.000Z,3.8
2022-11-21T19:17:55.000Z,3.8
2022-11-21T19:19:12.000Z,3.8
2022-11-21T19:20:28.000Z,3.8
2022-11-21T19:21:44.000Z,3.8
2022-11-21T19:23:01.000Z,3.7
2022-11-21T19:24:16.000Z,3.7
2022-11-21T19:25:32.000Z,3.7
2022-11-21T19:26:49.000Z,3.7
2022-11-21T19:28:05.000Z,3.7
2022-11-21T19:30:37.000Z,3.7
2022-11-21T19:31:54.000Z,3.7
2022-11-21T19:33:10.000Z,3.7
2022-11-21T19:34:26.000Z,3.7
2022-11-21T19:36:59.000Z,3.7
2022-11-21T19:38:15.000Z,3.7
2022-11-21T19:39:31.000Z,3.6
2022-11-21T19:40:47.000Z,3.6
2022-11-21T19:42:03.000Z,3.6
2022-11-21T19:43:19.000Z,3.7
2022-11-21T19:44:36.000Z,3.7
2022-11-21T19:45:52.000Z,3.7
2022-11-21T19:47:08.000Z,3.7
2022-11-21T19:49:41.000Z,3.7
2022-11-21T19:50:57.000Z,3.7
2022-11-21T19:52:13.000Z,3.7
2022-11-21T19:53:30.000Z,3.7
2022-11-21T19:54:46.000Z,3.7
2022-11-21T19:56:02.000Z,3.7
2022-11-21T19:57:17.000Z,3.7